createdAt,value
2023-01-29T00:02:17.167Z,100822.43
2023-01-29T00:10:40.236Z,100807.29
2023-01-29T00:19:04.191Z,100803.48
2023-01-29T00:27:27.129Z,100795.14
2023-01-29T00:35:49.973Z,100786.15
2023-01-29T00:44:31.361Z,100777.65
2023-01-29T00:52:54.741Z,100756.07
2023-01-29T01:01:17.809Z,100765.09
2023-01-29T01:09:59.354Z,100760.06
2023-01-29T01:18:22.524Z,100758.71
2023-01-29T01:26:45.359Z,100758.45
2023-01-29T01:35:13.781Z,100759.04
2023-01-29T01:44:03.066Z,100752.73
2023-01-29T01:52:26.199Z,100743.20
2023-01-29T02:00:49.334Z,100744.59
2023-01-29T02:09:39.049Z,100737.08
2023-01-29T02:18:03.147Z,100734.47
2023-01-29T02:26:39.346Z,100743.59
2023-01-29T02:35:29.978Z,100742.44
2023-01-29T02:44:07.691Z,100747.35
2023-01-29T02:52:37.905Z,100747.77
2023-01-29T03:01:09.305Z,100745.52
2023-01-29T03:09:44.679Z,100736.91
2023-01-29T03:18:14.263Z,100736.86
2023-01-29T03:26:55.621Z,100728.74
2023-01-29T03:35:36.722Z,100721.20
2023-01-29T03:44:06.496Z,100713.34
2023-01-29T03:52:41.984Z,100705.10
2023-01-29T04:01:18.581Z,100694.98
2023-01-29T04:09:56.382Z,100699.73
2023-01-29T04:18:19.487Z,100698.05
2023-01-29T04:27:12.929Z,100697.10
2023-01-29T04:36:00.181Z,100702.02
2023-01-29T04:44:32.229Z,100693.73
2023-01-29T04:53:12.068Z,100692.69
2023-01-29T05:01:35.741Z,100678.64
2023-01-29T05:10:00.560Z,100661.65
2023-01-29T05:18:24.541Z,100662.46
2023-01-29T05:27:08.538Z,100654.46
2023-01-29T05:35:31.964Z,100666.84
2023-01-29T05:43:55.106Z,100667.55
2023-01-29T05:52:18.136Z,100649.29
2023-01-29T06:00:41.203Z,100642.51
2023-01-29T06:09:04.531Z,100645.23
2023-01-29T06:17:28.865Z,100656.21
2023-01-29T06:25:51.714Z,100656.23
2023-01-29T06:34:14.669Z,100658.52
2023-01-29T06:42:37.571Z,100670.48
2023-01-29T06:51:05.850Z,100664.73
2023-01-29T06:59:30.170Z,100665.72
2023-01-29T07:07:53.471Z,100668.21
2023-01-29T07:16:16.595Z,100674.47
2023-01-29T07:24:40.153Z,100677.20
2023-01-29T07:33:09.108Z,100684.81
2023-01-29T07:41:32.217Z,100662.07
2023-01-29T07:49:56.514Z,100645.20
2023-01-29T07:58:19.862Z,100650.20
2023-01-29T08:06:44.757Z,100646.55
2023-01-29T08:15:08.652Z,100646.54
2023-01-29T08:23:32.178Z,100648.56
2023-01-29T08:31:55.822Z,100645.71
2023-01-29T08:40:19.039Z,100645.50
2023-01-29T08:48:42.273Z,100629.90
2023-01-29T08:57:05.173Z,100624.61
2023-01-29T09:05:29.075Z,100619.02
2023-01-29T09:13:52.404Z,100618.46
2023-01-29T09:22:16.871Z,100612.27
2023-01-29T09:30:40.865Z,100593.80
2023-01-29T09:39:03.900Z,100587.82
2023-01-29T09:47:28.201Z,100576.52
2023-01-29T09:55:59.981Z,100559.84
2023-01-29T10:04:49.750Z,100545.48
2023-01-29T10:13:20.091Z,100537.90
2023-01-29T10:21:50.818Z,100531.06
2023-01-29T10:30:25.893Z,100520.73
2023-01-29T10:38:51.129Z,100502.28
2023-01-29T10:47:23.204Z,100497.95
2023-01-29T10:55:55.360Z,100485.90
2023-01-29T11:04:19.598Z,100479.67
2023-01-29T11:12:43.980Z,100466.79
2023-01-29T11:21:08.979Z,100458.42
2023-01-29T11:29:51.357Z,100435.90
2023-01-29T11:38:15.955Z,100434.78
2023-01-29T11:46:40.422Z,100433.44
2023-01-29T11:55:17.432Z,100420.18
2023-01-29T12:03:45.051Z,100405.00
2023-01-29T12:12:26.791Z,100390.98
2023-01-29T12:20:59.072Z,100376.48
2023-01-29T12:29:44.458Z,100371.41
2023-01-29T12:38:27.046Z,100357.98
2023-01-29T12:46:56.858Z,100334.86
2023-01-29T12:55:24.884Z,100320.77
2023-01-29T13:03:59.586Z,100321.98
2023-01-29T13:12:24.579Z,100320.39
2023-01-29T13:20:49.729Z,100312.15
2023-01-29T13:29:24.525Z,100303.16
2023-01-29T13:37:53.879Z,100301.45
2023-01-29T13:46:21.565Z,100306.85
2023-01-29T13:55:06.823Z,100314.95
2023-01-29T14:03:35.912Z,100316.98
2023-01-29T14:12:21.957Z,100318.19
2023-01-29T14:20:47.925Z,100299.37
2023-01-29T14:29:21.504Z,100291.61
2023-01-29T14:37:56.488Z,100286.44
2023-01-29T14:46:35.436Z,100306.61
2023-01-29T14:55:01.765Z,100333.06
2023-01-29T15:03:45.727Z,100324.67
2023-01-29T15:12:20.988Z,100309.45
2023-01-29T15:20:44.684Z,100283.84
2023-01-29T15:29:24.951Z,100288.17
2023-01-29T15:37:59.403Z,100289.70
2023-01-29T15:46:27.188Z,100282.66
2023-01-29T15:54:51.592Z,100285.39
2023-01-29T16:03:16.026Z,100282.15
2023-01-29T16:11:40.363Z,100275.90
2023-01-29T16:20:07.599Z,100278.10
2023-01-29T16:28:31.043Z,100271.70
2023-01-29T16:36:55.555Z,100263.34
2023-01-29T16:45:28.423Z,100264.75
2023-01-29T16:54:12.425Z,100257.27
2023-01-29T17:02:39.606Z,100247.80
2023-01-29T17:11:03.597Z,100255.49
2023-01-29T17:19:27.203Z,100262.58
2023-01-29T17:27:53.394Z,100271.36
2023-01-29T17:36:18.253Z,100264.66
2023-01-29T17:44:44.010Z,100243.85
2023-01-29T17:53:09.112Z,100226.95
2023-01-29T18:01:33.041Z,100213.95
2023-01-29T18:10:00.583Z,100195.33
2023-01-29T18:18:29.075Z,100177.15
2023-01-29T18:26:54.259Z,100164.41
2023-01-29T18:35:19.869Z,100150.23
2023-01-29T18:43:44.677Z,100144.61
2023-01-29T18:52:08.903Z,100127.97
2023-01-29T19:00:35.634Z,100110.45
2023-01-29T19:08:59.182Z,100107.77
2023-01-29T19:17:26.805Z,100107.56
2023-01-29T19:25:49.967Z,100106.70
2023-01-29T19:34:16.021Z,100099.55
2023-01-29T19:42:39.885Z,100093.95
2023-01-29T19:51:08.407Z,100085.48
2023-01-29T19:59:32.505Z,100078.40
2023-01-29T20:07:55.584Z,100071.23
2023-01-29T20:16:20.379Z,100069.75
2023-01-29T20:24:44.163Z,100063.59
2023-01-29T20:33:07.826Z,100060.25
2023-01-29T20:41:30.824Z,100043.73
2023-01-29T20:49:53.786Z,100038.45
2023-01-29T20:58:17.338Z,100024.52
2023-01-29T21:06:44.840Z,100009.05
2023-01-29T21:15:11.792Z,99993.80
2023-01-29T21:23:34.756Z,99993.25
2023-01-29T21:31:58.128Z,99982.16
2023-01-29T21:40:21.531Z,99979.98
2023-01-29T21:48:44.773Z,99965.96
2023-01-29T21:57:12.369Z,99963.70
2023-01-29T22:05:40.530Z,99956.63
2023-01-29T22:14:03.701Z,99948.23
2023-01-29T22:22:26.958Z,99936.41
2023-01-29T22:30:49.907Z,99919.61
2023-01-29T22:39:13.572Z,99904.67
2023-01-29T22:47:36.549Z,99891.52
2023-01-29T22:55:59.855Z,99874.51
2023-01-29T23:04:23.235Z,99847.43
2023-01-29T23:12:46.158Z,99829.17
2023-01-29T23:21:09.739Z,99810.20
2023-01-29T23:29:32.759Z,99794.56
2023-01-29T23:37:57.388Z,99777.55
2023-01-29T23:46:20.406Z,99766.65
2023-01-29T23:54:43.542Z,99751.48
